createdAt,value
2017-01-03T00:00:50.763Z,0
2017-01-03T00:01:50.758Z,0
2017-01-03T00:02:51.175Z,0
2017-01-03T00:03:51.172Z,0
2017-01-03T00:04:51.559Z,0
2017-01-03T00:05:51.159Z,0
2017-01-03T00:06:50.740Z,0
2017-01-03T00:07:51.148Z,0
2017-01-03T00:08:50.734Z,0
2017-01-03T00:09:51.544Z,0
2017-01-03T00:10:51.548Z,0
2017-01-03T00:11:50.716Z,0
2017-01-03T00:12:51.144Z,0
2017-01-03T00:13:51.116Z,0
2017-01-03T00:14:50.300Z,0
2017-01-03T00:15:51.108Z,0
2017-01-03T00:16:50.696Z,0
2017-01-03T00:17:50.704Z,0
2017-01-03T00:18:50.704Z,0
2017-01-03T00:19:50.676Z,0
2017-01-03T00:20:50.676Z,0
2017-01-03T00:21:50.676Z,0
2017-01-03T00:22:51.077Z,0
2017-01-03T00:23:51.480Z,0
2017-01-03T00:24:51.068Z,0
2017-01-03T00:25:50.657Z,0
2017-01-03T00:26:50.649Z,0
2017-01-03T00:27:51.465Z,0
2017-01-03T00:28:51.461Z,0
2017-01-03T00:29:51.457Z,0
2017-01-03T00:30:50.633Z,0
2017-01-03T00:31:50.217Z,0
2017-01-03T00:32:51.041Z,0
2017-01-03T00:33:51.029Z,0
2017-01-03T00:34:51.426Z,0
2017-01-03T00:35:51.429Z,0
2017-01-03T00:36:51.013Z,0
2017-01-03T00:37:50.193Z,0
2017-01-03T00:38:51.013Z,0
2017-01-03T00:39:51.010Z,0
2017-01-03T00:40:51.406Z,0
2017-01-03T00:41:50.994Z,0
2017-01-03T00:42:51.397Z,0
2017-01-03T00:43:51.398Z,0
2017-01-03T00:44:50.574Z,0
2017-01-03T00:45:51.406Z,0
2017-01-03T00:46:50.970Z,0
2017-01-03T00:47:50.150Z,0
2017-01-03T00:48:50.150Z,0
2017-01-03T00:49:50.958Z,0
2017-01-03T00:50:50.946Z,0
2017-01-03T00:51:50.950Z,0
2017-01-03T00:52:50.946Z,0
2017-01-03T00:53:50.951Z,0
2017-01-03T00:54:51.346Z,0
2017-01-03T00:55:51.346Z,0
2017-01-03T00:56:50.107Z,0
2017-01-03T00:57:50.919Z,0
2017-01-03T00:58:51.335Z,0
2017-01-03T00:59:50.499Z,0
2017-01-03T01:00:49.683Z,0
2017-01-03T01:01:50.495Z,0
2017-01-03T01:02:50.903Z,0
2017-01-03T01:03:50.887Z,0
2017-01-03T01:04:50.479Z,0
2017-01-03T01:05:50.067Z,0
2017-01-03T01:06:50.899Z,0
2017-01-03T01:07:50.883Z,0
2017-01-03T01:08:50.055Z,0
2017-01-03T01:09:50.456Z,0
2017-01-03T01:10:51.271Z,0
2017-01-03T01:11:50.873Z,0
2017-01-03T01:12:50.863Z,0
2017-01-03T01:13:50.859Z,0
2017-01-03T01:14:50.436Z,0
2017-01-03T01:15:50.859Z,0
2017-01-03T01:16:50.844Z,0
2017-01-03T01:17:51.300Z,0
2017-01-03T01:18:50.432Z,0
2017-01-03T01:19:50.412Z,0
2017-01-03T01:20:50.408Z,0
2017-01-03T01:21:50.820Z,0
2017-01-03T01:22:50.408Z,0
2017-01-03T01:23:49.988Z,0
2017-01-03T01:24:50.424Z,0
2017-01-03T01:25:50.796Z,0
2017-01-03T01:26:51.208Z,0
2017-01-03T01:27:50.388Z,0
2017-01-03T01:28:50.788Z,0
2017-01-03T01:29:49.952Z,0
2017-01-03T01:30:50.776Z,0
2017-01-03T01:31:50.772Z,0
2017-01-03T01:32:50.356Z,0
2017-01-03T01:33:50.768Z,0
2017-01-03T01:34:51.176Z,0
2017-01-03T01:35:51.172Z,0
2017-01-03T01:36:50.744Z,0
2017-01-03T01:37:50.744Z,0
2017-01-03T01:38:50.740Z,0
2017-01-03T01:39:50.736Z,0
2017-01-03T01:40:50.724Z,0
2017-01-03T01:41:50.332Z,0
2017-01-03T01:42:50.724Z,0
2017-01-03T01:43:50.732Z,0
2017-01-03T01:44:49.888Z,0
2017-01-03T01:45:50.704Z,0
2017-01-03T01:46:50.700Z,0
2017-01-03T01:47:51.112Z,0
2017-01-03T01:48:50.696Z,0
2017-01-03T01:49:51.108Z,0
2017-01-03T01:50:51.104Z,0
2017-01-03T01:51:50.471Z,0
2017-01-03T01:52:50.264Z,0
2017-01-03T01:53:50.260Z,0
2017-01-03T01:54:51.080Z,0
2017-01-03T01:55:51.107Z,0
2017-01-03T01:56:49.840Z,0
2017-01-03T01:57:50.652Z,0
2017-01-03T01:58:50.236Z,0
2017-01-03T01:59:50.644Z,0
2017-01-03T02:00:50.232Z,0
2017-01-03T02:01:50.228Z,0
2017-01-03T02:02:50.636Z,0
2017-01-03T02:03:50.632Z,0
2017-01-03T02:04:51.028Z,0
2017-01-03T02:05:50.620Z,0
2017-01-03T02:06:51.028Z,0
2017-01-03T02:07:49.812Z,0
2017-01-03T02:08:51.032Z,0
2017-01-03T02:09:50.192Z,0
2017-01-03T02:10:50.184Z,0
2017-01-03T02:11:50.593Z,0
2017-01-03T02:12:50.593Z,0
2017-01-03T02:13:49.761Z,0
2017-01-03T02:14:50.581Z,0
2017-01-03T02:15:50.585Z,0
2017-01-03T02:16:50.981Z,0
2017-01-03T02:17:50.977Z,0
2017-01-03T02:18:50.569Z,0
2017-01-03T02:19:50.593Z,0
2017-01-03T02:20:50.965Z,0
2017-01-03T02:21:49.721Z,0
2017-01-03T02:22:50.954Z,0
2017-01-03T02:23:50.562Z,0
2017-01-03T02:24:50.541Z,0
2017-01-03T02:25:50.952Z,0
2017-01-03T02:26:50.113Z,0
2017-01-03T02:27:50.934Z,0
2017-01-03T02:28:50.930Z,0
2017-01-03T02:29:50.946Z,0
2017-01-03T02:30:50.098Z,0
2017-01-03T02:31:50.922Z,0
2017-01-03T02:32:50.914Z,0
2017-01-03T02:33:50.094Z,0
2017-01-03T02:34:50.898Z,0
2017-01-03T02:35:49.666Z,0
2017-01-03T02:36:50.482Z,0
2017-01-03T02:37:51.082Z,0
2017-01-03T02:38:50.478Z,0
2017-01-03T02:39:50.058Z,0
2017-01-03T02:40:50.459Z,0
2017-01-03T02:41:50.454Z,0
2017-01-03T02:42:50.454Z,0
2017-01-03T02:43:50.034Z,0
2017-01-03T02:44:50.027Z,0
2017-01-03T02:45:50.843Z,0
2017-01-03T02:46:50.439Z,0
2017-01-03T02:47:50.035Z,0
2017-01-03T02:48:50.839Z,0
2017-01-03T02:49:50.839Z,0
2017-01-03T02:50:50.427Z,0
2017-01-03T02:51:50.015Z,0
2017-01-03T02:52:50.815Z,0
2017-01-03T02:53:50.003Z,0
2017-01-03T02:54:50.396Z,0
2017-01-03T02:55:49.991Z,0
2017-01-03T02:56:50.391Z,0
2017-01-03T02:57:50.804Z,0
2017-01-03T02:58:50.388Z,0
2017-01-03T02:59:49.960Z,0
2017-01-03T03:00:49.968Z,0
2017-01-03T03:01:50.360Z,0
2017-01-03T03:02:50.780Z,0
2017-01-03T03:03:49.956Z,0
2017-01-03T03:04:49.545Z,0
2017-01-03T03:05:50.772Z,0
2017-01-03T03:06:50.760Z,0
2017-01-03T03:07:50.333Z,0
2017-01-03T03:08:50.336Z,0
2017-01-03T03:09:49.921Z,0
2017-01-03T03:10:50.794Z,0
2017-01-03T03:11:50.744Z,0
2017-01-03T03:12:49.909Z,0
2017-01-03T03:13:50.735Z,0
2017-01-03T03:14:50.717Z,0
2017-01-03T03:15:50.305Z,0
2017-01-03T03:16:50.297Z,0
2017-01-03T03:17:50.301Z,0
2017-01-03T03:18:49.890Z,0
2017-01-03T03:19:49.881Z,0
2017-01-03T03:20:49.873Z,0
2017-01-03T03:21:49.865Z,0
2017-01-03T03:22:50.281Z,0
2017-01-03T03:23:50.277Z,0
2017-01-03T03:24:49.445Z,0
2017-01-03T03:25:50.674Z,0
2017-01-03T03:26:49.850Z,0
2017-01-03T03:27:49.846Z,0
2017-01-03T03:28:50.658Z,0
2017-01-03T03:29:49.426Z,0
2017-01-03T03:30:49.422Z,0
2017-01-03T03:31:49.822Z,0
2017-01-03T03:32:50.074Z,0
2017-01-03T03:33:49.818Z,0
2017-01-03T03:34:50.226Z,0
2017-01-03T03:35:50.638Z,0
2017-01-03T03:36:49.802Z,0
2017-01-03T03:37:50.214Z,0
2017-01-03T03:38:50.198Z,0
2017-01-03T03:39:50.202Z,0
2017-01-03T03:40:49.367Z,0
2017-01-03T03:41:50.199Z,0
2017-01-03T03:42:50.599Z,0
2017-01-03T03:43:50.627Z,0
2017-01-03T03:44:49.772Z,0
2017-01-03T03:45:50.179Z,0
2017-01-03T03:46:50.575Z,0
2017-01-03T03:47:49.759Z,0
2017-01-03T03:48:50.159Z,0
2017-01-03T03:49:50.159Z,0
2017-01-03T03:50:50.147Z,0
2017-01-03T03:51:50.555Z,0
2017-01-03T03:52:50.547Z,0
2017-01-03T03:53:50.551Z,0
2017-01-03T03:54:50.123Z,0
2017-01-03T03:55:50.132Z,0
2017-01-03T03:56:50.136Z,0
2017-01-03T03:57:49.295Z,0
2017-01-03T03:58:50.519Z,0
2017-01-03T03:59:50.116Z,0
2017-01-03T04:00:49.688Z,0
2017-01-03T04:01:50.104Z,0
2017-01-03T04:02:50.103Z,0
2017-01-03T04:03:49.684Z,0
2017-01-03T04:04:50.096Z,0
2017-01-03T04:05:50.088Z,0
2017-01-03T04:06:49.660Z,0
2017-01-03T04:07:50.072Z,0
2017-01-03T04:08:50.068Z,0
2017-01-03T04:09:50.060Z,0
2017-01-03T04:10:50.476Z,0
2017-01-03T04:11:49.232Z,0
2017-01-03T04:12:50.052Z,0
2017-01-03T04:13:49.636Z,0
2017-01-03T04:14:49.632Z,0
2017-01-03T04:15:49.629Z,0
2017-01-03T04:16:50.445Z,0
2017-01-03T04:17:49.200Z,0
2017-01-03T04:18:49.608Z,0
2017-01-03T04:19:50.433Z,0
2017-01-03T04:20:50.424Z,0
2017-01-03T04:21:50.012Z,0
2017-01-03T04:22:49.605Z,0
2017-01-03T04:23:50.417Z,0
2017-01-03T04:24:49.989Z,0
2017-01-03T04:25:49.997Z,0
2017-01-03T04:26:49.985Z,0
2017-01-03T04:27:49.581Z,0
2017-01-03T04:28:49.565Z,0
2017-01-03T04:29:49.977Z,0
2017-01-03T04:30:49.973Z,0
2017-01-03T04:31:49.981Z,0
2017-01-03T04:32:49.546Z,0
2017-01-03T04:33:50.373Z,0
2017-01-03T04:34:49.533Z,0
2017-01-03T04:35:50.357Z,0
2017-01-03T04:36:49.941Z,0
2017-01-03T04:37:49.113Z,0
2017-01-03T04:38:49.933Z,0
2017-01-03T04:39:49.937Z,0
2017-01-03T04:40:50.337Z,0
2017-01-03T04:41:50.361Z,0
2017-01-03T04:42:49.498Z,0
2017-01-03T04:43:50.313Z,0
2017-01-03T04:44:49.081Z,0
2017-01-03T04:45:49.486Z,0
2017-01-03T04:46:49.889Z,0
2017-01-03T04:47:49.893Z,0
2017-01-03T04:48:50.293Z,0
2017-01-03T04:49:49.469Z,0
2017-01-03T04:50:49.457Z,0
2017-01-03T04:51:50.285Z,0
2017-01-03T04:52:49.874Z,0
2017-01-03T04:53:49.853Z,0
2017-01-03T04:54:49.865Z,0
2017-01-03T04:55:49.446Z,0
2017-01-03T04:56:49.861Z,0
2017-01-03T04:57:48.626Z,0
2017-01-03T04:58:50.242Z,0
2017-01-03T04:59:49.425Z,0
2017-01-03T05:00:50.242Z,0
2017-01-03T05:01:49.849Z,0
2017-01-03T05:02:49.005Z,0
2017-01-03T05:03:49.818Z,0
2017-01-03T05:04:50.217Z,0
2017-01-03T05:05:50.237Z,0
2017-01-03T05:06:49.806Z,0
2017-01-03T05:07:49.794Z,0
2017-01-03T05:08:49.382Z,0
2017-01-03T05:09:48.965Z,0
2017-01-03T05:10:49.785Z,0
2017-01-03T05:11:49.374Z,0
2017-01-03T05:12:49.362Z,0
2017-01-03T05:13:49.346Z,0
2017-01-03T05:14:49.770Z,0
2017-01-03T05:15:48.518Z,0
2017-01-03T05:16:50.162Z,0
2017-01-03T05:17:49.758Z,0
2017-01-03T05:18:48.913Z,0
2017-01-03T05:19:49.325Z,0
2017-01-03T05:20:50.145Z,0
2017-01-03T05:21:50.133Z,0
2017-01-03T05:22:48.893Z,0
2017-01-03T05:23:49.713Z,0
2017-01-03T05:24:49.721Z,0
2017-01-03T05:25:50.124Z,0
2017-01-03T05:26:49.317Z,0
2017-01-03T05:27:49.285Z,0
2017-01-03T05:28:49.280Z,0
2017-01-03T05:29:49.280Z,0
2017-01-03T05:30:49.268Z,0
2017-01-03T05:31:48.448Z,0
2017-01-03T05:32:49.268Z,0
2017-01-03T05:33:49.248Z,0
2017-01-03T05:34:50.071Z,0
2017-01-03T05:35:49.660Z,0
2017-01-03T05:36:49.652Z,0
2017-01-03T05:37:49.644Z,0
2017-01-03T05:38:49.236Z,0
2017-01-03T05:39:50.044Z,0
2017-01-03T05:40:48.800Z,0
2017-01-03T05:41:50.032Z,0
2017-01-03T05:42:49.616Z,0
2017-01-03T05:43:49.608Z,0
2017-01-03T05:44:49.212Z,0
2017-01-03T05:45:49.612Z,0
2017-01-03T05:46:49.612Z,0
2017-01-03T05:47:50.012Z,0
2017-01-03T05:48:49.604Z,0
2017-01-03T05:49:49.592Z,0
2017-01-03T05:50:49.612Z,0
2017-01-03T05:51:49.180Z,0
2017-01-03T05:52:49.576Z,0
2017-01-03T05:53:50.232Z,0
2017-01-03T05:54:49.568Z,0
2017-01-03T05:55:49.972Z,0
2017-01-03T05:56:49.556Z,0
2017-01-03T05:57:49.992Z,0
2017-01-03T05:58:49.132Z,0
2017-01-03T05:59:49.536Z,0
2017-01-03T06:00:48.708Z,0
2017-01-03T06:01:49.541Z,0
2017-01-03T06:02:49.944Z,0
2017-01-03T06:03:49.528Z,0
2017-01-03T06:04:49.516Z,0
2017-01-03T06:05:49.528Z,0
2017-01-03T06:06:49.096Z,0
2017-01-03T06:07:49.540Z,0
2017-01-03T06:08:49.500Z,0
2017-01-03T06:09:49.484Z,0
2017-01-03T06:10:49.896Z,0
2017-01-03T06:11:49.476Z,0
2017-01-03T06:12:48.648Z,0
2017-01-03T06:13:49.056Z,0
2017-01-03T06:14:49.480Z,0
2017-01-03T06:15:49.488Z,0
2017-01-03T06:16:49.452Z,0
2017-01-03T06:17:49.460Z,0
2017-01-03T06:18:49.064Z,0
2017-01-03T06:19:49.852Z,0
2017-01-03T06:20:49.024Z,0
2017-01-03T06:21:49.460Z,0
2017-01-03T06:22:49.836Z,0
2017-01-03T06:23:49.040Z,0
2017-01-03T06:24:49.008Z,0
2017-01-03T06:25:49.408Z,0
2017-01-03T06:26:49.392Z,0
2017-01-03T06:27:49.396Z,0
2017-01-03T06:28:48.976Z,0
2017-01-03T06:29:49.388Z,0
2017-01-03T06:30:49.792Z,0
2017-01-03T06:31:48.964Z,0
2017-01-03T06:32:48.961Z,0
2017-01-03T06:33:49.780Z,0
2017-01-03T06:34:49.365Z,0
2017-01-03T06:35:49.756Z,0
2017-01-03T06:36:49.357Z,0
2017-01-03T06:37:49.349Z,0
2017-01-03T06:38:49.341Z,0
2017-01-03T06:39:49.332Z,0
2017-01-03T06:40:48.924Z,0
2017-01-03T06:41:48.917Z,0
2017-01-03T06:42:49.321Z,0
2017-01-03T06:43:49.317Z,0
2017-01-03T06:44:48.901Z,0
2017-01-03T06:45:48.897Z,0
2017-01-03T06:46:49.329Z,0
2017-01-03T06:47:48.897Z,0
2017-01-03T06:48:49.297Z,0
2017-01-03T06:49:48.873Z,0
2017-01-03T06:50:48.465Z,0
2017-01-03T06:51:48.865Z,0
2017-01-03T06:52:49.673Z,0
2017-01-03T06:53:49.265Z,0
2017-01-03T06:54:48.845Z,0
2017-01-03T06:55:49.281Z,0
2017-01-03T06:56:49.250Z,0
2017-01-03T06:57:49.658Z,0
2017-01-03T06:58:49.665Z,0
2017-01-03T06:59:49.654Z,0
2017-01-03T07:00:48.818Z,0
2017-01-03T07:01:48.844Z,0
2017-01-03T07:02:49.218Z,0
2017-01-03T07:03:49.214Z,0
2017-01-03T07:04:49.230Z,0
2017-01-03T07:05:48.786Z,0
2017-01-03T07:06:49.614Z,0
2017-01-03T07:07:48.372Z,0
2017-01-03T07:08:49.618Z,0
2017-01-03T07:09:49.186Z,0
2017-01-03T07:10:49.590Z,0
2017-01-03T07:11:49.583Z,5
2017-01-03T07:12:48.754Z,5
2017-01-03T07:13:49.162Z,5
2017-01-03T07:14:49.154Z,5
2017-01-03T07:15:49.147Z,5
2017-01-03T07:16:49.582Z,5
2017-01-03T07:17:49.143Z,5
2017-01-03T07:18:49.135Z,5
2017-01-03T07:19:49.130Z,5
2017-01-03T07:20:49.131Z,10
2017-01-03T07:21:49.129Z,10
2017-01-03T07:22:49.115Z,10
2017-01-03T07:23:48.707Z,10
2017-01-03T07:24:48.715Z,10
2017-01-03T07:25:49.115Z,15
2017-01-03T07:26:49.103Z,15
2017-01-03T07:27:49.499Z,15
2017-01-03T07:28:49.496Z,15
2017-01-03T07:29:49.531Z,15
2017-01-03T07:30:49.479Z,15
2017-01-03T07:31:48.255Z,20
2017-01-03T07:32:48.652Z,20
2017-01-03T07:33:48.656Z,20
2017-01-03T07:34:49.460Z,20
2017-01-03T07:35:49.448Z,20
2017-01-03T07:36:49.043Z,20
2017-01-03T07:37:49.028Z,25
2017-01-03T07:38:49.448Z,25
2017-01-03T07:39:49.436Z,25
2017-01-03T07:40:49.028Z,25
2017-01-03T07:41:49.016Z,25
2017-01-03T07:42:49.016Z,25
2017-01-03T07:43:49.416Z,30
2017-01-03T07:44:48.588Z,30
2017-01-03T07:45:48.984Z,30
2017-01-03T07:46:48.992Z,30
2017-01-03T07:47:48.564Z,30
2017-01-03T07:48:48.980Z,30
2017-01-03T07:49:49.388Z,35
2017-01-03T07:50:48.953Z,35
2017-01-03T07:51:49.376Z,35
2017-01-03T07:52:48.972Z,35
2017-01-03T07:53:49.368Z,35
2017-01-03T07:54:48.944Z,40
2017-01-03T07:55:48.949Z,40
2017-01-03T07:56:48.945Z,40
2017-01-03T07:57:48.929Z,40
2017-01-03T07:58:48.932Z,40
2017-01-03T07:59:48.917Z,40
2017-01-03T08:00:49.333Z,45
2017-01-03T08:01:49.321Z,45
2017-01-03T08:02:48.901Z,45
2017-01-03T08:03:49.321Z,45
2017-01-03T08:04:48.885Z,45
2017-01-03T08:05:48.893Z,45
2017-01-03T08:06:48.889Z,50
2017-01-03T08:07:48.477Z,50
2017-01-03T08:08:49.293Z,50
2017-01-03T08:09:49.281Z,50
2017-01-03T08:10:48.457Z,50
2017-01-03T08:11:49.269Z,50
2017-01-03T08:12:48.857Z,50
2017-01-03T08:13:48.857Z,50
2017-01-03T08:14:48.434Z,50
2017-01-03T08:15:48.837Z,50
2017-01-03T08:16:49.241Z,50
2017-01-03T08:17:48.833Z,50
2017-01-03T08:18:49.033Z,50
2017-01-03T08:19:48.822Z,50
2017-01-03T08:20:47.993Z,50
2017-01-03T08:21:49.221Z,50
2017-01-03T08:22:48.401Z,50
2017-01-03T08:23:48.389Z,50
2017-01-03T08:24:49.209Z,50
2017-01-03T08:25:49.304Z,50
2017-01-03T08:26:48.781Z,50
2017-01-03T08:27:48.814Z,55
2017-01-03T08:28:49.194Z,55
2017-01-03T08:29:48.770Z,55
2017-01-03T08:30:48.353Z,55
2017-01-03T08:31:48.769Z,55
2017-01-03T08:32:48.345Z,55
2017-01-03T08:33:48.754Z,55
2017-01-03T08:34:48.742Z,55
2017-01-03T08:35:48.744Z,55
2017-01-03T08:36:48.327Z,55
2017-01-03T08:37:48.725Z,60
2017-01-03T08:38:49.143Z,60
2017-01-03T08:39:49.129Z,60
2017-01-03T08:40:48.302Z,60
2017-01-03T08:41:48.305Z,55
2017-01-03T08:42:48.713Z,55
2017-01-03T08:43:48.697Z,55
2017-01-03T08:44:48.701Z,60
2017-01-03T08:45:48.690Z,60
2017-01-03T08:46:49.114Z,60
2017-01-03T08:47:47.877Z,60
2017-01-03T08:48:48.681Z,60
2017-01-03T08:49:48.673Z,60
2017-01-03T08:50:48.673Z,60
2017-01-03T08:51:49.074Z,60
2017-01-03T08:52:48.245Z,60
2017-01-03T08:53:48.657Z,60
2017-01-03T08:54:48.242Z,60
2017-01-03T08:55:48.642Z,60
2017-01-03T08:56:48.230Z,65
2017-01-03T08:57:48.230Z,65
2017-01-03T08:58:48.626Z,65
2017-01-03T08:59:49.046Z,65
2017-01-03T09:00:48.217Z,70
2017-01-03T09:01:48.618Z,70
2017-01-03T09:02:49.017Z,70
2017-01-03T09:03:48.202Z,70
2017-01-03T09:04:48.606Z,70
2017-01-03T09:05:48.182Z,70
2017-01-03T09:06:47.761Z,70
2017-01-03T09:07:48.585Z,70
2017-01-03T09:08:48.169Z,75
2017-01-03T09:09:48.573Z,80
2017-01-03T09:10:48.157Z,80
2017-01-03T09:11:48.980Z,80
2017-01-03T09:12:48.984Z,80
2017-01-03T09:13:48.548Z,80
2017-01-03T09:14:48.553Z,80
2017-01-03T09:15:48.967Z,80
2017-01-03T09:16:48.547Z,75
2017-01-03T09:17:48.543Z,75
2017-01-03T09:18:48.536Z,70
2017-01-03T09:19:48.519Z,70
2017-01-03T09:20:48.519Z,70
2017-01-03T09:21:48.106Z,75
2017-01-03T09:22:48.514Z,75
2017-01-03T09:23:48.506Z,75
2017-01-03T09:24:48.914Z,75
2017-01-03T09:25:48.906Z,75
2017-01-03T09:26:48.486Z,80
2017-01-03T09:27:48.906Z,80
2017-01-03T09:28:48.490Z,80
2017-01-03T09:29:48.890Z,85
2017-01-03T09:30:48.053Z,85
2017-01-03T09:31:48.885Z,85
2017-01-03T09:32:48.449Z,85
2017-01-03T09:33:48.453Z,85
2017-01-03T09:34:47.629Z,85
2017-01-03T09:35:48.861Z,85
2017-01-03T09:36:48.449Z,80
2017-01-03T09:37:48.437Z,80
2017-01-03T09:38:48.017Z,80
2017-01-03T09:39:48.024Z,80
2017-01-03T09:40:48.844Z,85
2017-01-03T09:41:48.416Z,85
2017-01-03T09:42:48.404Z,85
2017-01-03T09:43:48.404Z,85
2017-01-03T09:44:47.996Z,85
2017-01-03T09:45:48.811Z,85
2017-01-03T09:46:48.007Z,85
2017-01-03T09:47:48.395Z,90
2017-01-03T09:48:48.376Z,90
2017-01-03T09:49:48.375Z,90
2017-01-03T09:50:47.963Z,90
2017-01-03T09:51:48.371Z,90
2017-01-03T09:52:47.959Z,90
2017-01-03T09:53:48.363Z,90
2017-01-03T09:54:48.351Z,90
2017-01-03T09:55:48.767Z,90
2017-01-03T09:56:48.348Z,90
2017-01-03T09:57:47.958Z,90
2017-01-03T09:58:48.743Z,90
2017-01-03T09:59:48.335Z,90
2017-01-03T10:00:48.335Z,90
2017-01-03T10:01:48.734Z,90
2017-01-03T10:02:47.946Z,90
2017-01-03T10:03:47.899Z,90
2017-01-03T10:04:48.723Z,90
2017-01-03T10:05:48.719Z,90
2017-01-03T10:06:47.915Z,90
2017-01-03T10:07:48.306Z,90
2017-01-03T10:08:48.702Z,90
2017-01-03T10:09:48.290Z,90
2017-01-03T10:10:47.871Z,90
2017-01-03T10:11:47.871Z,90
2017-01-03T10:12:47.866Z,90
2017-01-03T10:13:48.266Z,90
2017-01-03T10:14:47.855Z,90
2017-01-03T10:15:48.262Z,90
2017-01-03T10:16:48.262Z,90
2017-01-03T10:17:48.254Z,90
2017-01-03T10:18:48.658Z,90
2017-01-03T10:19:48.243Z,90
2017-01-03T10:20:48.647Z,90
2017-01-03T10:21:48.243Z,90
2017-01-03T10:22:48.234Z,90
2017-01-03T10:23:48.634Z,95
2017-01-03T10:24:48.639Z,95
2017-01-03T10:25:48.639Z,95
2017-01-03T10:26:48.630Z,95
2017-01-03T10:27:47.803Z,95
2017-01-03T10:28:48.627Z,95
2017-01-03T10:29:47.786Z,95
2017-01-03T10:30:47.787Z,95
2017-01-03T10:31:48.198Z,95
2017-01-03T10:32:48.599Z,100
2017-01-03T10:33:48.183Z,100
2017-01-03T10:34:48.182Z,100
2017-01-03T10:35:48.177Z,100
2017-01-03T10:36:48.583Z,100
2017-01-03T10:37:47.766Z,100
2017-01-03T10:38:47.779Z,100
2017-01-03T10:39:48.159Z,100
2017-01-03T10:40:48.171Z,100
2017-01-03T10:41:48.154Z,100
2017-01-03T10:42:48.566Z,100
2017-01-03T10:43:48.151Z,100
2017-01-03T10:44:48.559Z,100
2017-01-03T10:45:47.730Z,100
2017-01-03T10:46:47.715Z,100
2017-01-03T10:47:48.130Z,100
2017-01-03T10:48:48.535Z,100
2017-01-03T10:49:48.127Z,100
2017-01-03T10:50:48.563Z,100
2017-01-03T10:51:47.699Z,100
2017-01-03T10:52:47.695Z,105
2017-01-03T10:53:47.695Z,105
2017-01-03T10:54:48.095Z,105
2017-01-03T10:55:48.128Z,110
2017-01-03T10:56:48.536Z,115
2017-01-03T10:57:48.096Z,115
2017-01-03T10:58:48.512Z,120
2017-01-03T10:59:48.088Z,120
2017-01-03T11:00:48.080Z,125
2017-01-03T11:01:48.481Z,130
2017-01-03T11:02:48.076Z,130
2017-01-03T11:03:48.073Z,130
2017-01-03T11:04:48.469Z,130
2017-01-03T11:05:47.649Z,130
2017-01-03T11:06:47.641Z,135
2017-01-03T11:07:48.474Z,135
2017-01-03T11:08:47.638Z,140
2017-01-03T11:09:48.462Z,140
2017-01-03T11:10:48.034Z,140
2017-01-03T11:11:48.442Z,145
2017-01-03T11:12:47.619Z,145
2017-01-03T11:13:48.455Z,150
2017-01-03T11:14:47.207Z,145
2017-01-03T11:15:48.027Z,145
2017-01-03T11:16:47.603Z,145
2017-01-03T11:17:48.019Z,140
2017-01-03T11:18:48.007Z,140
2017-01-03T11:19:48.016Z,135
2017-01-03T11:20:48.440Z,135
2017-01-03T11:21:47.592Z,135
2017-01-03T11:22:47.992Z,135
2017-01-03T11:23:48.400Z,130
2017-01-03T11:24:48.405Z,125
2017-01-03T11:25:47.993Z,120
2017-01-03T11:26:48.405Z,115
2017-01-03T11:27:47.573Z,110
2017-01-03T11:28:47.977Z,105
2017-01-03T11:29:48.381Z,100
2017-01-03T11:30:48.385Z,95
2017-01-03T11:31:48.373Z,95
2017-01-03T11:32:47.966Z,95
2017-01-03T11:33:47.953Z,95
2017-01-03T11:34:47.957Z,90
2017-01-03T11:35:48.362Z,90
2017-01-03T11:36:47.952Z,90
2017-01-03T11:37:48.358Z,90
2017-01-03T11:38:47.950Z,90
2017-01-03T11:39:48.383Z,90
2017-01-03T11:40:47.938Z,90
2017-01-03T11:41:47.930Z,90
2017-01-03T11:42:47.930Z,90
2017-01-03T11:43:48.343Z,90
2017-01-03T11:44:47.511Z,90
2017-01-03T11:45:47.924Z,90
2017-01-03T11:46:47.939Z,90
2017-01-03T11:47:47.511Z,90
2017-01-03T11:48:48.323Z,90
2017-01-03T11:49:47.091Z,90
2017-01-03T11:50:48.311Z,90
2017-01-03T11:51:47.496Z,90
2017-01-03T11:52:47.481Z,90
2017-01-03T11:53:47.888Z,90
2017-01-03T11:54:48.308Z,90
2017-01-03T11:55:48.301Z,90
2017-01-03T11:56:47.888Z,90
2017-01-03T11:57:47.881Z,90
2017-01-03T11:58:48.297Z,90
2017-01-03T11:59:47.873Z,90
2017-01-03T12:00:48.273Z,90
2017-01-03T12:01:47.861Z,90
2017-01-03T12:02:47.869Z,90
2017-01-03T12:03:48.270Z,85
2017-01-03T12:04:47.858Z,85
2017-01-03T12:05:47.890Z,85
2017-01-03T12:06:47.858Z,85
2017-01-03T12:07:47.438Z,85
2017-01-03T12:08:47.022Z,85
2017-01-03T12:09:47.847Z,85
2017-01-03T12:10:48.250Z,85
2017-01-03T12:11:47.846Z,85
2017-01-03T12:12:47.835Z,85
2017-01-03T12:13:47.831Z,85
2017-01-03T12:14:48.251Z,85
2017-01-03T12:15:48.239Z,85
2017-01-03T12:16:47.816Z,85
2017-01-03T12:17:48.228Z,85
2017-01-03T12:18:47.812Z,85
2017-01-03T12:19:47.807Z,85
2017-01-03T12:20:47.800Z,85
2017-01-03T12:21:48.224Z,85
2017-01-03T12:22:47.804Z,85
2017-01-03T12:23:47.384Z,85
2017-01-03T12:24:48.208Z,85
2017-01-03T12:25:47.377Z,80
2017-01-03T12:26:48.197Z,80
2017-01-03T12:27:48.224Z,80
2017-01-03T12:28:48.185Z,80
2017-01-03T12:29:48.193Z,80
2017-01-03T12:30:48.189Z,80
2017-01-03T12:31:48.185Z,80
2017-01-03T12:32:47.813Z,80
2017-01-03T12:33:47.769Z,80
2017-01-03T12:34:47.753Z,80
2017-01-03T12:35:47.342Z,80
2017-01-03T12:36:48.169Z,80
2017-01-03T12:37:48.165Z,80
2017-01-03T12:38:47.330Z,85
2017-01-03T12:39:47.742Z,85
2017-01-03T12:40:47.745Z,85
2017-01-03T12:41:48.150Z,85
2017-01-03T12:42:47.322Z,85
2017-01-03T12:43:47.722Z,80
2017-01-03T12:44:48.131Z,80
2017-01-03T12:45:48.135Z,80
2017-01-03T12:46:48.139Z,80
2017-01-03T12:47:47.307Z,80
2017-01-03T12:48:47.711Z,80
2017-01-03T12:49:47.707Z,80
2017-01-03T12:50:48.119Z,80
2017-01-03T12:51:47.295Z,80
2017-01-03T12:52:48.108Z,85
2017-01-03T12:53:46.875Z,80
2017-01-03T12:54:47.695Z,85
2017-01-03T12:55:47.283Z,90
2017-01-03T12:56:47.268Z,95
2017-01-03T12:57:47.700Z,90
2017-01-03T12:58:47.676Z,85
2017-01-03T12:59:48.088Z,80
2017-01-03T13:00:48.124Z,80
2017-01-03T13:01:47.672Z,80
2017-01-03T13:02:48.076Z,80
2017-01-03T13:03:47.664Z,85
2017-01-03T13:04:48.064Z,85
2017-01-03T13:05:47.656Z,85
2017-01-03T13:06:47.232Z,85
2017-01-03T13:07:47.649Z,90
2017-01-03T13:08:47.644Z,90
2017-01-03T13:09:47.221Z,95
2017-01-03T13:10:47.645Z,95
2017-01-03T13:11:48.049Z,95
2017-01-03T13:12:47.625Z,90
2017-01-03T13:13:47.624Z,90
2017-01-03T13:14:47.205Z,90
2017-01-03T13:15:48.032Z,90
2017-01-03T13:16:47.205Z,90
2017-01-03T13:17:47.205Z,85
2017-01-03T13:18:47.197Z,90
2017-01-03T13:19:48.013Z,90
2017-01-03T13:20:48.021Z,90
2017-01-03T13:21:47.181Z,90
2017-01-03T13:22:47.605Z,90
2017-01-03T13:23:47.181Z,85
2017-01-03T13:24:47.625Z,80
2017-01-03T13:25:47.173Z,75
2017-01-03T13:26:47.997Z,75
2017-01-03T13:27:47.569Z,75
2017-01-03T13:28:47.997Z,75
2017-01-03T13:29:47.573Z,80
2017-01-03T13:30:47.570Z,80
2017-01-03T13:31:47.554Z,75
2017-01-03T13:32:47.978Z,75
2017-01-03T13:33:47.566Z,75
2017-01-03T13:34:47.158Z,70
2017-01-03T13:35:47.554Z,70
2017-01-03T13:36:47.954Z,70
2017-01-03T13:37:47.962Z,65
2017-01-03T13:38:47.134Z,65
2017-01-03T13:39:47.542Z,65
2017-01-03T13:40:47.542Z,65
2017-01-03T13:41:47.538Z,65
2017-01-03T13:42:47.530Z,60
2017-01-03T13:43:47.122Z,60
2017-01-03T13:44:47.526Z,60
2017-01-03T13:45:47.934Z,60
2017-01-03T13:46:47.518Z,60
2017-01-03T13:47:47.923Z,60
2017-01-03T13:48:47.090Z,60
2017-01-03T13:49:47.530Z,60
2017-01-03T13:50:47.911Z,60
2017-01-03T13:51:47.495Z,55
2017-01-03T13:52:47.915Z,55
2017-01-03T13:53:47.495Z,55
2017-01-03T13:54:47.495Z,55
2017-01-03T13:55:47.075Z,55
2017-01-03T13:56:47.903Z,55
2017-01-03T13:57:47.895Z,55
2017-01-03T13:58:47.075Z,55
2017-01-03T13:59:47.891Z,55
2017-01-03T14:00:47.055Z,55
2017-01-03T14:01:47.876Z,55
2017-01-03T14:02:47.468Z,55
2017-01-03T14:03:47.879Z,55
2017-01-03T14:04:47.876Z,55
2017-01-03T14:05:47.048Z,55
2017-01-03T14:06:47.056Z,55
2017-01-03T14:07:47.476Z,55
2017-01-03T14:08:47.448Z,55
2017-01-03T14:09:47.440Z,55
2017-01-03T14:10:47.440Z,55
2017-01-03T14:11:47.837Z,55
2017-01-03T14:12:47.848Z,55
2017-01-03T14:13:47.840Z,55
2017-01-03T14:14:47.425Z,55
2017-01-03T14:15:47.416Z,55
2017-01-03T14:16:47.420Z,50
2017-01-03T14:17:47.413Z,50
2017-01-03T14:18:47.825Z,50
2017-01-03T14:19:47.821Z,50
2017-01-03T14:20:46.989Z,50
2017-01-03T14:21:47.813Z,50
2017-01-03T14:22:46.989Z,50
2017-01-03T14:23:46.981Z,50
2017-01-03T14:24:46.973Z,50
2017-01-03T14:25:47.381Z,45
2017-01-03T14:26:46.975Z,45
2017-01-03T14:27:47.793Z,45
2017-01-03T14:28:47.377Z,45
2017-01-03T14:29:47.374Z,45